Latest METARs, TAFs and NOTAMs for LLBG


---------------------------------------------------------------------------
	(OBSERVATIONS)
LLBG 241950Z 02004KT 340V080 9999 SCT026 26/20 Q1011 NOSIG=
LLBG 241920Z 36004KT 9999 SCT025 26/20 Q1011 NOSIG=
LLBG 241850Z 32006KT 300V360 9999 SCT026 26/20 Q1011 NOSIG=
LLBG 241820Z 33006KT 9999 FEW027 26/19 Q1010 NOSIG=
LLBG 241750Z 34007KT 9999 FEW027 26/19 Q1010 NOSIG=
LLBG 241720Z 34008KT 9999 SCT027 26/20 Q1010 NOSIG=
---------------------------------------------------------------------------
	(FC)
Sorry, FC For LLBG Not Found
---------------------------------------------------------------------------
	(TERMINAL AREA FORECAST)
LLBG 241701Z 2418/2518 02005KT 9999 SCT025
    BECMG 2419/2421 VRB03KT
    TEMPO 2422/2505 BKN025
    BECMG 2507/2509 32010KT FEW035
    TX31/2512Z TN22/2503Z=
---------------------------------------------------------------------------
	(NOTAMS)


LLBG A0001/18 AUTO LDG RWY 21 PROHIBITED. 01 JAN 06:09 2018 UNTIL
    PERM. CREATED: 01 JAN 06:10 2018

LLBG A0002/18 ANTENNA MAST AT PSN N320013E0345341, HGT (19.86M)
    65.24FT AGL, (58.68M) 192.76FT AMSL. DAY AND NGT MARKED.
    CTN ADZ. ISRAEL AIP, PART AD, CHART AD 2.5-18.B. REF. 01
    JAN 06:12 2018 UNTIL PERM. CREATED: 01 JAN 06:13 2018

LLBG A0003/18 RADAR FAC AT PSN N320036E0345305, HGT (33.10M)
    108.7FT AGL, (67.78M) 222.66FT AMSL. DAY AND NGT MARKED.
    CTN ADZ. ISRAEL AIP, PART AD, CHART AD 2.5-18A, 2.5-18B.
    REF. 01 JAN 06:15 2018 UNTIL PERM. CREATED: 01 JAN 06:15
    2018

LLBG A0004/18 OBSTS LOCATED AT PSNS: N315957.84 E0345348.73 HGT
    41.55M AMSL, N315954.92 E0345348.66 HGT 43.64M AMSL, N315956.11
    E0345353.99 HGT 49.03M AMSL, AIP ISRAEL, PART AD, PAGE 2.5-4,
    TABLE LLBG AD 2.10, AND CHART AD 2.5-18B. REF. 01 JAN 06:23
    2018 UNTIL PERM. CREATED: 01 JAN 06:23 2018

LLBG A0012/18 WPT SIX REDESIGNATED AS FLYOVER POINT, PSN N315938E0344619.
    ISRAEL AIP, PART AD LLBG, CHARTS AD 2.5-25, AD 2.5-27A, AD
    2.5-27B, AD 2.5-27C, AD 2.5-29, AD 2.5-33A, AD 2.5-33B, AD
    2.5-33C, AD 2.5-33D, AD 2.5-40A, AD 2.5-40C, AD 2.5-42A,
    AD 2.5-46E, AD 2.5-46F, REF. 01 JAN 06:43 2018 UNTIL PERM.
    CREATED: 01 JAN 06:43 2018

LLBG A0013/18 ACFT STAND D9 LTD TO 35.8M WINGSPAN. 01 JAN 06:45
    2018 UNTIL 31 DEC 21:59 2018. CREATED: 01 JAN 06:45 2018

LLBG A0015/18 ENTRY/EXIT TO/FM ACFT STAND B36 BY TOWING ONLY.
    01 JAN 06:46 2018 UNTIL 31 DEC 21:59 2018. CREATED: 01 JAN
    06:46 2018

LLBG A0019/18 EXIT FM APN V WILL BE BY TOWING TO FMT POINT. START-UP
    AT FMT POINT. ISRAEL-AIP, PART AD, PAGE AD 2.5-11, CHART
    AD 2.5-15A REF. 01 JAN 06:56 2018 UNTIL 31 DEC 21:59 2018
    ESTIMATED. CREATED: 01 JAN 06:57 2018

LLBG A0020/18 CHART AD 2.5-45 RNP Y RWY 30 (AR) SUSPENDED. ISRAEL-AIP,
    PART AD, CHART AD 2.5-45 REF. 01 JAN 07:00 2018 UNTIL 31
    DEC 21:59 2018 ESTIMATED. CREATED: 01 JAN 07:00 2018

LLBG A0025/18 SPEED RESTRICTION OF 185KTS IAS APPLIED FOR IAP
    RNP Y RWY 30 (AR), MISSED APCH LEGS BG990 BG991 BG992 DEENA
    BOAZZ RIMON. MISSED APCH ALT RESTRICTION APPLIES FOR BG992
    AT 3,000FT RIMON AT OR ABV 5,000FT. AIP ISRAEL, 2.5-45 BACK
    REF; DISREGARD BG993 2.5-45 CHART. 01 JAN 07:21 2018 UNTIL
    PERM. CREATED: 01 JAN 07:22 2018

LLBG A0027/18 ACFT STAND D8 LTD TO 64M WINGSPAN. ACFT WHOSE WINGSPAN
    MORE THAN 64M WILL BE TOWED IN. 01 JAN 07:24 2018 UNTIL 31
    DEC 21:59 2018. CREATED: 01 JAN 07:24 2018

LLBG A0039/18 WHEN ILS RWY 08 GP U/S MOCA BTN FAF AND BC 5DME
    IS 850FT QNH. ISRAEL-AIP, PART AD, CHART AD 2.5-40C REF.
    01 JAN 08:00 2018 UNTIL PERM. CREATED: 01 JAN 08:00 2018

LLBG A0055/18 CRANE ERECTED AT RAMAT-GAN PSN N320316E0345045
    WI LLBG AD, NW THR RWY 12, HGT 95M 314FT AGL, 138M 454FT
    QNH, CTN ADZ. 01 JAN 08:31 2018 UNTIL 31 AUG 17:00 2018.
    CREATED: 01 JAN 08:32 2018

LLBG A0135/18 DUE TO TFC CONGESTION: GA ACFT NOT PERMITTED TO
    OPR AT LLBG BTN 0500-0800 1400-1800 0001-0140 LMT. EXC STATE
    ACFT, HOSP FLTS AND FLTS APV BY AD ADMINISTRATION. ISRAEL
    AIP, PART AD, PAGE 2.5-11, PARA 10. REF. SUN-FRI 0200-0500
    1100-1500 2101-2240, 23 MAR 02:00 2018 UNTIL 26 OCT 22:40
    2018. CREATED: 02 JAN 12:56 2018

LLBG A0480/18 ILS APCH RWY 08 MDA(H) WHEN GP INOP CHG TO 630(540)FT.
    AIP ISRAEL, PART AD, CHART 2.5-40C REF. 14 FEB 07:06 2018
    UNTIL 31 DEC 21:59 2018. CREATED: 14 FEB 07:07 2018

LLBG A0712/18 ACFT STAND D2 CLSD DUE WIP. 16 MAR 05:33 2018 UNTIL
    31 DEC 21:59 2018. CREATED: 16 MAR 05:38 2018

LLBG A0878/18 ACFT STANDS WH2 WH3 CLSD DUE WIP. 13 MAY 00:01
    2018 UNTIL 28 JUN 20:59 2018. CREATED: 15 APR 13:36 2018

LLBG A0921/18 AD CLSD DUE WIP. NOV 09 1600-2055, DEC 14 1600-2055,
    JAN 11 1600-2055, FEB 08 1600-2055, MAR 08 1600-2055, 09
    NOV 16:00 2018 UNTIL 08 MAR 20:55 2019. CREATED: 22 APR 07:44
    2018

LLBG A0923/18 RWY 12/30 CLSD FOR LDG/TKOF DUE WIP. BTN APR 29-JUN
    20: RWY 12/30 CLSD BTN Y-W4, INT 12/R CLSD, INT 12/W4 AVBL.
    BTN JUN 20-JUL 31: RWY 12/30 CLSD BTN Y-W4, INT 12/W4 CLSD,
    INT 12/R AVBL. ON JUN 20: RWY/TWY INTS 12/R AND 12/W4 CLSD.
    29 APR 05:00 2018 UNTIL 31 JUL 14:00 2018. CREATED: 22 APR
    12:16 2018

LLBG A0928/18 TWY Z CLSD DUE WIP. 29 APR 05:00 2018 UNTIL 31
    JUL 17:00 2018. CREATED: 22 APR 12:53 2018

LLBG A0929/18 TWY W4 CLSD BTN RWY 08-TWY K DUE WIP. RWY/TWY INT
    12/W4 CLSD. 21 JUN 05:00 2018 UNTIL 31 JUL 17:00 2018. CREATED:
    22 APR 13:17 2018

LLBG A0966/18 LDA RWY30 FREQ 111.900MHZ CH56X WITHDRAWN FOR MAINT.
    29 APR 11:32 2018 UNTIL 30 SEP 20:59 2018. CREATED: 29 APR
    11:32 2018

LLBG A0967/18 ILS RWY12 FREQ 110.300MHZ CH40X WITHDRAWN FOR MAINT.
    29 APR 11:39 2018 UNTIL 30 SEP 20:59 2018. CREATED: 29 APR
    11:40 2018

LLBG A0969/18 ATIS DIVIDED INTO ARR ON 132.500MHZ, DEP ON 132.800MHZ.
    ISRAEL AIP, PART AD, PAGE 2.5-9, TABLE 2.18 REF. 29 APR 11:57
    2018 UNTIL 31 DEC 22:00 2018. CREATED: 29 APR 11:57 2018

LLBG A1004/18 ILS 08 IAF WPT TAPUZ ALT RESTRICTION CHG FM 'AT
    OR BLW' TO 'AT OR ABV'. AIP ISRAEL, PART AD, CHART 2.5-40C
    REF. 02 MAY 08:47 2018 UNTIL PERM. CREATED: 02 MAY 08:47
    2018

LLBG A1019/18 ATIS BY PHONE DIVIDED INTO: ARR NR 972-3-775-5074
    DEP NR 972-3-752-6243 ISRAEL AIP, PART AD, PAGE 2.5-9, TABLE
    2.18 REF. 07 MAY 07:03 2018 UNTIL 31 DEC 22:00 2018. CREATED:
    07 MAY 07:04 2018

LLBG A1025/18 ACFT STAND H23 COMPLETELY WITHDRAWN. AIP ISRAEL,
    PART AD, CHART AD 2.5-17 AND AIC 2/18 REF. 07 MAY 08:07 2018
    UNTIL PERM. CREATED: 07 MAY 08:09 2018

LLBG A1026/18 GUIDANCE WI APN H BY A-VDGS. ISRAEL AIP, PART AD,
    PAGE 2.5-11, CHART AD 2.5-17 AND AIC 2/18 REF. 07 MAY 08:14
    2018 UNTIL PERM. CREATED: 07 MAY 08:20 2018

LLBG A1027/18 PRKG PSNS H20-H22 RE-DESIGNATED X20-X22. AIP ISRAEL,
    PART AD, CHART AD 2.5-17 AND AIC 2/18 REF. 07 MAY 06:12 2018
    UNTIL PERM. CREATED: 07 MAY 08:25 2018

LLBG A1120/08 POSS DISRUPTIONS DUE TO LOCAL LABOR DISPUTE. 09
    SEP 03:00 UNTIL 10 SEP 03:00 ESTIMATED

LLBG A1132/18 APN BE CLSD, DUE WIP. 27 MAY 05:00 2018 UNTIL 02
    SEP 14:00 2018. CREATED: 22 MAY 07:21 2018

LLBG A1186/18 AD LIMITATIONS ON RWYS TEMPO WITHDRAWN DUE WIP
    ON RWY 12/30. RWYS CLOSURE WILL BE ISSUED BY NOTAMS. ISRAEL
    AIP, PART AD, PAGE AD 2.5-12A, PARA 10.5 REF. 31 MAY 13:20
    2018 UNTIL 31 JUL 14:00 2018. CREATED: 31 MAY 13:20 2018

LLBG A1251/18 WHEN EXECUTING SID YUVAL, IF UNA TO REACH 8,000FT
    AT KESEF PCD HDG 270DEG EXP RADAR VECTORING AND ADVISE ATC.
    ISRAEL-AIP, PART AD, CHART AD 2.5-29 REF. 18 JUN 00:01 2018
    UNTIL PERM. CREATED: 12 JUN 08:17 2018

LLBG A1256/18 AD CLSD DUE WIP. JUL 13, AUG 10, SEP 07, OCT 12
    DAILY 1500-1955, 13 JUL 15:00 2018 UNTIL 12 OCT 19:55 2018.
    CREATED: 13 JUN 05:14 2018

LLBG A1286/18 TWYS K1 AND N CLSD BTN K1-L DUE WIP. 24 JUN 00:01
    2018 UNTIL 28 JUN 14:00 2018. CREATED: 20 JUN 14:01 2018

LLBG A1290/18 RWY 12/30 CLSD BTN TWYS E-R DUE WIP. 26 JUN 05:30
    2018 UNTIL 26 JUN 10:30 2018. CREATED: 21 JUN 06:30 2018

LLBG A1291/18 TWY M CLSD BTN E-K2 DUE WIP. 26 JUN 05:00 2018
    UNTIL 26 JUN 05:30 2018. CREATED: 21 JUN 06:51 2018

LLBG A1292/18 APN V CLSD, DUE WIP. 28 JUN 05:30 2018 UNTIL 28
    JUN 08:30 2018. CREATED: 21 JUN 06:54 2018

LLBG A1293/18 APN H CLSD, DUE WIP. 27 JUN 05:30 2018 UNTIL 27
    JUN 07:00 2018. CREATED: 21 JUN 06:56 2018

LLBG A1294/18 DME ILS RWY 26 FREQ 108.700MHZ CH24X WITHDRAWN
    FOR MAINT. 27 JUN 06:00 2018 UNTIL 27 JUN 10:00 2018. CREATED:
    21 JUN 06:59 2018

LLBG A1295/18 SUN-WED DAILY 2000-0500UTC, FM THU 1400 TO SUN
    0500 UTC DRG SUMMER, SUN-WED DAILY 2100-0600UTC, FM THU 1500
    TO SUN 0600 DRG WINTER, SID CHANGED DEP FLTS FM LLBG MAY
    FILE FPL TO PSN MERVA ONWARD TO CYPRUS FIR. FLTS VIA MERVA
    WILL BE CLR BY LLBG ATC TO SID YUVAL1 TO MERVA AND ONWARDS.
    LAST OFF BLOCK TIME AT 0715LMT. ISRAEL-AIP, PART ENR, PAGE
    ENR 5.1-2 REF. 21 JUN 09:37 2018 UNTIL PERM. CREATED: 21
    JUN 09:46 2018

---------------------------------------------------------------------------